Flag for USA

Past Weather in Tulsa, Oklahoma, USA — Yesterday and Last 2 Weeks

Currently: 34 °F. Overcast. (Weather station: Tulsa International Airport, USA). See more current weather

Past Weather in Tulsa — Graph

°F

Tulsa Temperature Yesterday

Maximum temperature yesterday: 50 °F (at 12:53 am)
Minimum temperature yesterday: 38 °F (at 11:53 pm)
Average temperature yesterday: 47 °F

High & Low Weather Summary for the Past Weeks

 TemperatureHumidityPressure
High60 °F (Jan 18, 2:53 pm)100% (Jan 24, 6:53 am)30.50 "Hg (Jan 24, 6:53 am)
Low20 °F (Jan 11, 7:53 am)29% (Jan 14, 1:53 pm)29.54 "Hg (Jan 25, 6:53 am)
Average42 °F66%30.02 "Hg
* Reported Jan 11 7:53 am — Jan 26 7:53 am, Tulsa. Weather by CustomWeather, © 2021

Note: Actual official high and low records may vary slightly from our data, if they occured in-between our weather recording intervals... More about our weather records

Tulsa Weather History for the Previous 24 Hours

Scroll right to see more
 ConditionsComfort  
Time TempWeatherWind HumidityBarometerVisibility
7:53 am
Tue, Jan 26
32 °FPartly sunny.7 mph79%29.98 "Hg10 mi
6:53 am33 °FOvercast.13 mph78%29.93 "Hg10 mi
5:53 am33 °FOvercast.9 mph78%29.91 "Hg10 mi
4:53 am34 °FOvercast.10 mph79%29.88 "Hg10 mi
3:53 am35 °FOvercast.10 mph75%29.87 "Hg10 mi
2:53 am34 °FPassing clouds.14 mph79%29.85 "Hg10 mi
1:53 am35 °FPassing clouds.9 mph78%29.84 "Hg10 mi
1:09 am35 °FPassing clouds.7 mph82%29.82 "Hg10 mi
12:53 am35 °FPassing clouds.10 mph82%29.83 "Hg10 mi
11:53 pm
Mon, Jan 25
38 °FPassing clouds.12 mph76%29.80 "Hg10 mi
10:53 pm40 °FPassing clouds.12 mph77%29.78 "Hg10 mi
8:53 pm42 °FPassing clouds.7 mph82%29.73 "Hg10 mi
8:10 pm45 °FOvercast.12 mph76%29.73 "Hg10 mi
7:53 pm45 °FOvercast.9 mph80%29.72 "Hg10 mi
6:53 pm46 °FOvercast.8 mph83%29.70 "Hg10 mi
5:53 pm47 °FMostly cloudy.6 mph83%29.66 "Hg10 mi
5:22 pm47 °FMore clouds than sun.6 mph83%29.66 "Hg10 mi
4:53 pm48 °FOvercast.13 mph80%29.65 "Hg10 mi
3:53 pm48 °FOvercast.10 mph86%29.62 "Hg10 mi
2:53 pm49 °FMostly cloudy.12 mph86%29.59 "Hg10 mi
1:53 pm49 °FMostly cloudy.13 mph86%29.58 "Hg10 mi
12:53 pm49 °FMostly cloudy.12 mph90%29.58 "Hg10 mi
11:53 am49 °FMostly cloudy.14 mph93%29.60 "Hg10 mi
11:31 am49 °FMostly cloudy.10 mph93%29.60 "Hg10 mi
10:53 am49 °FFog.13 mph97%29.60 "Hg1 mi
10:16 am49 °FFog.8 mph97%29.58 "Hg1 mi
9:53 am49 °FFog.6 mph97%29.57 "Hg3 mi
Weather by CustomWeather, © 2021

See weather overview